^^

Nearby METAR Reports

 

EGHH - Bournemouth Airp, United Kingdom
Distance from station: S 10mi, 17km
Updated: 16/02/2019 15:20
Overcast
Overcast
 Wind from SSW
Wind: SSW 12 mph , 19 km/h
Temperature: 10°C
Wind Chill: 7°C
Dew Point: 10°C
Humidity: 100%
Barometer: 1022 hPa
Clouds: Overcast
Visibility: 5 miles , 8 km
Cloud details: Overcast 122 m
2019/02/16 15:20 EGHH 161520Z 20010KT 8000 OVC004 10/10 Q1022
EGDM - Boscombe Down, United Kingdom
Distance from station: N 16mi, 26km
Updated: 16/02/2019 14:50
Mist, Mostly cloudy
Mist, Mostly cloudy
 Wind from SSW
Wind: SSW 12 mph , 19 km/h
Temperature: 11°C
Dew Point: 10°C
Humidity: 94%
Barometer: 1021 hPa
Summary: Mist
Clouds: Mostly cloudy
Visibility: 3 miles , 5 km
Cloud details: Mostly cloudy 91 m
2019/02/16 14:50 EGDM 161450Z AUTO 20010KT 5000 BR BKN003/// 11/10 Q1021
 
EGVP - Middle Wallop, United Kingdom
Distance from station: NE 17mi, 27km
Updated: 16/02/2019 14:50
Mostly cloudy
Mostly cloudy
 Wind from S
Wind: S 12 mph , 19 km/h
Temperature: 11°C
Dew Point: 10°C
Humidity: 94%
Barometer: 1021 hPa
Clouds: Mostly cloudy
Visibility: 4 miles , 7 km
Cloud details: Mostly cloudy 122 m
2019/02/16 14:50 EGVP 161450Z AUTO 17010KT 7000 // BKN004/// 11/10 Q1021
EGHI - Southampton Wx C, United Kingdom
Distance from station: E 19mi, 31km
Updated: 16/02/2019 15:20
Overcast
Overcast
 Wind from S
Wind: S 5 mph , 7 km/h
Temperature: 10°C
Wind Chill: 9°C
Dew Point: 9°C
Humidity: 94%
Barometer: 1022 hPa
Clouds: Overcast
Visibility: 5 miles , 8 km
Cloud details: Overcast 183 m
2019/02/16 15:20 EGHI 161520Z 17004KT 120V200 8000 OVC006 10/09 Q1022
 
EGDY - Yeovilton (navy), United Kingdom
Distance from station: W 36mi, 58km
Updated: 16/02/2019 14:50
Overcast
Overcast
 Wind from S
Wind: S 9 mph , 15 km/h
Temperature: 12°C
Dew Point: 10°C
Humidity: 88%
Barometer: 1021 hPa
Clouds: Overcast
Visibility: 6 miles , 10 km
Cloud details: Overcast 183 m
2019/02/16 14:50 EGDY 161450Z AUTO 18008KT 9999 OVC006/// 12/10 Q1021
EGUO - Colerne Raf, United Kingdom
Distance from station: NNW 41mi, 66km
Updated: 14/02/2019 22:50
NOT Current
Clear
Clear
 Wind from ENE
Wind: ENE 1 mph , 2 km/h
Temperature: 1°C
Dew Point: 0°C
Humidity: 93%
Barometer: 1029 hPa
Summary: Clear
Visibility: greater than 7 miles , 10 km
2019/02/14 22:50 EGUO 142250Z 06001KT CAVOK 01/00 Q1029 BLU NOSIG
 
EGVO - Odiham Raf, United Kingdom
Distance from station: ENE 42mi, 68km
Updated: 16/02/2019 14:50
Mostly cloudy
Mostly cloudy
 Wind from S
Wind: S 10 mph , 17 km/h
Temperature: 12°C
Dew Point: 10°C
Humidity: 88%
Barometer: 1022 hPa
Clouds: Mostly cloudy
Visibility: 6 miles , 10 km
Cloud details: Mostly cloudy 213 m
Mostly cloudy 701 m
2019/02/16 14:50 EGVO 161450Z AUTO 18009KT 9999 BKN007/// BKN023/// 12/10 Q1022
EGGD - Bristol/Lulsgate, United Kingdom
Distance from station: NW 50mi, 81km
Updated: 16/02/2019 15:20
Overcast
Overcast
 Wind from S
Wind: S 12 mph , 19 km/h
Temperature: 11°C
Dew Point: 9°C
Humidity: 88%
Barometer: 1020 hPa
Clouds: Overcast
Visibility: 6 miles , 10 km
Cloud details: Mostly cloudy 213 m
Overcast 488 m
2019/02/16 15:20 EGGD 161520Z AUTO 19010KT 9999 BKN007 OVC016 11/09 Q1020